sensor_id;sensor_type;location;lat;lon;timestamp;P1;durP1;ratioP1;P2;durP2;ratioP2
11703;SDS011;5908;51.354;7.458;2023-09-12T07:51:10;22.10;;;17.80;;
11703;SDS011;5908;51.354;7.458;2023-09-12T07:53:38;14.60;;;12.45;;
11703;SDS011;5908;51.354;7.458;2023-09-12T07:56:04;15.52;;;13.02;;
11703;SDS011;5908;51.354;7.458;2023-09-12T07:58:31;20.77;;;15.93;;
11703;SDS011;5908;51.354;7.458;2023-09-12T08:00:58;12.13;;;10.50;;
11703;SDS011;5908;51.354;7.458;2023-09-12T08:03:26;26.38;;;20.95;;
11703;SDS011;5908;51.354;7.458;2023-09-12T08:05:56;19.45;;;16.15;;
11703;SDS011;5908;51.354;7.458;2023-09-12T08:08:22;14.40;;;11.18;;
11703;SDS011;5908;51.354;7.458;2023-09-12T08:10:49;17.13;;;12.57;;
11703;SDS011;5908;51.354;7.458;2023-09-12T08:13:16;14.05;;;11.70;;
11703;SDS011;5908;51.354;7.458;2023-09-12T08:15:43;14.18;;;11.65;;
11703;SDS011;5908;51.354;7.458;2023-09-12T08:18:10;15.23;;;11.48;;
11703;SDS011;5908;51.354;7.458;2023-09-12T08:20:38;15.68;;;10.70;;
11703;SDS011;5908;51.354;7.458;2023-09-12T08:23:04;15.68;;;13.18;;
11703;SDS011;5908;51.354;7.458;2023-09-12T08:25:31;15.50;;;10.52;;
11703;SDS011;5908;51.354;7.458;2023-09-12T08:27:58;22.63;;;19.45;;
11703;SDS011;5908;51.354;7.458;2023-09-12T08:30:25;21.98;;;16.58;;
11703;SDS011;5908;51.354;7.458;2023-09-12T08:32:53;19.25;;;15.73;;
11703;SDS011;5908;51.354;7.458;2023-09-12T08:35:19;13.98;;;10.82;;
11703;SDS011;5908;51.354;7.458;2023-09-12T08:37:48;11.90;;;9.95;;
11703;SDS011;5908;51.354;7.458;2023-09-12T08:40:14;14.02;;;10.80;;
11703;SDS011;5908;51.354;7.458;2023-09-12T08:42:42;11.60;;;9.27;;
11703;SDS011;5908;51.354;7.458;2023-09-12T08:57:26;19.98;;;14.68;;
11703;SDS011;5908;51.354;7.458;2023-09-12T08:59:54;10.20;;;9.20;;
11703;SDS011;5908;51.354;7.458;2023-09-12T09:02:21;11.77;;;10.38;;
11703;SDS011;5908;51.354;7.458;2023-09-12T09:04:48;18.25;;;15.38;;
11703;SDS011;5908;51.354;7.458;2023-09-12T09:07:16;11.50;;;8.13;;
11703;SDS011;5908;51.354;7.458;2023-09-12T09:09:44;11.75;;;9.02;;
11703;SDS011;5908;51.354;7.458;2023-09-12T09:12:14;10.25;;;8.50;;
11703;SDS011;5908;51.354;7.458;2023-09-12T09:14:40;12.20;;;8.60;;
11703;SDS011;5908;51.354;7.458;2023-09-12T09:17:07;11.95;;;9.10;;
11703;SDS011;5908;51.354;7.458;2023-09-12T09:19:42;10.63;;;8.60;;
11703;SDS011;5908;51.354;7.458;2023-09-12T09:22:10;9.07;;;7.75;;
11703;SDS011;5908;51.354;7.458;2023-09-12T09:24:37;11.25;;;8.70;;
11703;SDS011;5908;51.354;7.458;2023-09-12T09:27:04;11.10;;;8.68;;
11703;SDS011;5908;51.354;7.458;2023-09-12T09:29:32;8.52;;;7.68;;
11703;SDS011;5908;51.354;7.458;2023-09-12T09:32:16;9.30;;;7.40;;
11703;SDS011;5908;51.354;7.458;2023-09-12T09:34:43;8.88;;;6.60;;
11703;SDS011;5908;51.354;7.458;2023-09-12T09:37:10;7.35;;;6.47;;
11703;SDS011;5908;51.354;7.458;2023-09-12T09:39:37;7.97;;;5.88;;
11703;SDS011;5908;51.354;7.458;2023-09-12T09:42:04;6.20;;;5.60;;
11703;SDS011;5908;51.354;7.458;2023-09-12T09:44:38;5.93;;;5.15;;
11703;SDS011;5908;51.354;7.458;2023-09-12T09:47:05;6.38;;;5.65;;
11703;SDS011;5908;51.354;7.458;2023-09-12T09:49:31;6.65;;;5.13;;
11703;SDS011;5908;51.354;7.458;2023-09-12T09:51:59;6.82;;;6.07;;
11703;SDS011;5908;51.354;7.458;2023-09-12T09:54:29;6.60;;;5.10;;
11703;SDS011;5908;51.354;7.458;2023-09-12T09:56:56;7.78;;;5.50;;
11703;SDS011;5908;51.354;7.458;2023-09-12T09:59:24;7.00;;;6.10;;
11703;SDS011;5908;51.354;7.458;2023-09-12T10:01:54;8.25;;;5.90;;
11703;SDS011;5908;51.354;7.458;2023-09-12T10:04:22;5.93;;;5.32;;
11703;SDS011;5908;51.354;7.458;2023-09-12T10:06:50;10.38;;;9.32;;
11703;SDS011;5908;51.354;7.458;2023-09-12T10:09:18;6.55;;;5.90;;
11703;SDS011;5908;51.354;7.458;2023-09-12T10:11:48;7.03;;;6.32;;
11703;SDS011;5908;51.354;7.458;2023-09-12T10:14:18;6.15;;;5.40;;
11703;SDS011;5908;51.354;7.458;2023-09-12T10:16:46;6.20;;;5.30;;
11703;SDS011;5908;51.354;7.458;2023-09-12T10:19:16;5.40;;;4.80;;
11703;SDS011;5908;51.354;7.458;2023-09-12T10:21:46;6.47;;;5.50;;
11703;SDS011;5908;51.354;7.458;2023-09-12T10:24:15;5.70;;;5.15;;
11703;SDS011;5908;51.354;7.458;2023-09-12T10:26:42;5.80;;;5.30;;
11703;SDS011;5908;51.354;7.458;2023-09-12T10:29:10;6.70;;;5.70;;
11703;SDS011;5908;51.354;7.458;2023-09-12T10:31:39;7.07;;;5.78;;
11703;SDS011;5908;51.354;7.458;2023-09-12T10:34:06;7.00;;;5.63;;
11703;SDS011;5908;51.354;7.458;2023-09-12T10:36:36;7.28;;;5.97;;
11703;SDS011;5908;51.354;7.458;2023-09-12T10:39:05;7.65;;;6.20;;
11703;SDS011;5908;51.354;7.458;2023-09-12T10:41:32;7.82;;;6.18;;
11703;SDS011;5908;51.354;7.458;2023-09-12T10:44:02;7.38;;;6.38;;
11703;SDS011;5908;51.354;7.458;2023-09-12T10:46:35;6.97;;;6.25;;
11703;SDS011;5908;51.354;7.458;2023-09-12T10:49:03;9.73;;;6.15;;
11703;SDS011;5908;51.354;7.458;2023-09-12T10:51:32;8.52;;;6.10;;
11703;SDS011;5908;51.354;7.458;2023-09-12T10:54:00;8.20;;;6.40;;
11703;SDS011;5908;51.354;7.458;2023-09-12T10:56:28;9.68;;;7.30;;
11703;SDS011;5908;51.354;7.458;2023-09-12T10:59:08;6.78;;;6.13;;
11703;SDS011;5908;51.354;7.458;2023-09-12T11:01:37;7.25;;;6.53;;
11703;SDS011;5908;51.354;7.458;2023-09-12T11:07:16;8.82;;;6.47;;
11703;SDS011;5908;51.354;7.458;2023-09-12T11:12:49;7.03;;;6.30;;
11703;SDS011;5908;51.354;7.458;2023-09-12T11:15:17;7.50;;;6.60;;
11703;SDS011;5908;51.354;7.458;2023-09-12T11:22:40;6.93;;;6.15;;
11703;SDS011;5908;51.354;7.458;2023-09-12T11:25:18;7.05;;;6.18;;
11703;SDS011;5908;51.354;7.458;2023-09-12T11:28:02;6.78;;;6.07;;
11703;SDS011;5908;51.354;7.458;2023-09-12T11:30:30;7.13;;;6.13;;
11703;SDS011;5908;51.354;7.458;2023-09-12T11:32:59;6.43;;;5.82;;
11703;SDS011;5908;51.354;7.458;2023-09-12T11:35:29;8.88;;;6.28;;
11703;SDS011;5908;51.354;7.458;2023-09-12T11:37:56;8.10;;;6.03;;
11703;SDS011;5908;51.354;7.458;2023-09-12T11:40:25;6.63;;;5.93;;
11703;SDS011;5908;51.354;7.458;2023-09-12T11:43:08;8.23;;;5.75;;
11703;SDS011;5908;51.354;7.458;2023-09-12T11:45:44;7.97;;;6.43;;
11703;SDS011;5908;51.354;7.458;2023-09-12T11:48:12;7.05;;;6.13;;
11703;SDS011;5908;51.354;7.458;2023-09-12T11:50:39;7.57;;;5.45;;
11703;SDS011;5908;51.354;7.458;2023-09-12T11:53:07;6.72;;;5.95;;
11703;SDS011;5908;51.354;7.458;2023-09-12T11:55:36;6.78;;;5.55;;
11703;SDS011;5908;51.354;7.458;2023-09-12T11:58:09;5.80;;;5.20;;
11703;SDS011;5908;51.354;7.458;2023-09-12T12:00:37;6.93;;;5.72;;
11703;SDS011;5908;51.354;7.458;2023-09-12T12:03:04;6.95;;;5.63;;
11703;SDS011;5908;51.354;7.458;2023-09-12T12:05:30;7.32;;;5.72;;
11703;SDS011;5908;51.354;7.458;2023-09-12T12:08:00;7.78;;;6.60;;
11703;SDS011;5908;51.354;7.458;2023-09-12T12:10:28;7.63;;;6.38;;
11703;SDS011;5908;51.354;7.458;2023-09-12T12:12:55;7.28;;;6.10;;
11703;SDS011;5908;51.354;7.458;2023-09-12T12:15:23;8.35;;;7.53;;
11703;SDS011;5908;51.354;7.458;2023-09-12T12:17:53;6.43;;;5.47;;
11703;SDS011;5908;51.354;7.458;2023-09-12T12:20:21;6.88;;;6.15;;
11703;SDS011;5908;51.354;7.458;2023-09-12T12:22:48;6.15;;;5.13;;
11703;SDS011;5908;51.354;7.458;2023-09-12T12:25:16;6.75;;;6.15;;
11703;SDS011;5908;51.354;7.458;2023-09-12T12:27:43;6.20;;;5.60;;
11703;SDS011;5908;51.354;7.458;2023-09-12T12:30:11;7.00;;;6.03;;
11703;SDS011;5908;51.354;7.458;2023-09-12T12:32:41;8.55;;;5.97;;
11703;SDS011;5908;51.354;7.458;2023-09-12T12:35:16;6.93;;;5.63;;
11703;SDS011;5908;51.354;7.458;2023-09-12T12:37:43;6.55;;;5.95;;
11703;SDS011;5908;51.354;7.458;2023-09-12T12:40:11;7.70;;;6.43;;
11703;SDS011;5908;51.354;7.458;2023-09-12T12:42:39;7.05;;;6.35;;
11703;SDS011;5908;51.354;7.458;2023-09-12T12:45:10;11.90;;;6.88;;
11703;SDS011;5908;51.354;7.458;2023-09-12T12:47:37;8.00;;;7.20;;
11703;SDS011;5908;51.354;7.458;2023-09-12T12:50:08;7.65;;;6.80;;
11703;SDS011;5908;51.354;7.458;2023-09-12T12:52:37;7.22;;;6.63;;
11703;SDS011;5908;51.354;7.458;2023-09-12T12:55:04;7.72;;;7.03;;
11703;SDS011;5908;51.354;7.458;2023-09-12T12:57:32;13.20;;;11.80;;
11703;SDS011;5908;51.354;7.458;2023-09-12T13:00:02;9.02;;;7.55;;
11703;SDS011;5908;51.354;7.458;2023-09-12T13:02:30;8.38;;;7.57;;
11703;SDS011;5908;51.354;7.458;2023-09-12T13:04:57;12.18;;;10.70;;
11703;SDS011;5908;51.354;7.458;2023-09-12T13:07:25;10.18;;;7.65;;
11703;SDS011;5908;51.354;7.458;2023-09-12T13:09:52;7.55;;;6.85;;
11703;SDS011;5908;51.354;7.458;2023-09-12T13:12:19;9.50;;;7.25;;
11703;SDS011;5908;51.354;7.458;2023-09-12T13:14:46;13.25;;;10.60;;
11703;SDS011;5908;51.354;7.458;2023-09-12T13:17:12;10.70;;;8.32;;
11703;SDS011;5908;51.354;7.458;2023-09-12T13:19:39;10.77;;;7.75;;
11703;SDS011;5908;51.354;7.458;2023-09-12T13:22:06;8.32;;;7.53;;
11703;SDS011;5908;51.354;7.458;2023-09-12T13:24:34;7.60;;;6.88;;
11703;SDS011;5908;51.354;7.458;2023-09-12T13:27:01;10.50;;;8.98;;
11703;SDS011;5908;51.354;7.458;2023-09-12T13:29:27;22.42;;;18.92;;
11703;SDS011;5908;51.354;7.458;2023-09-12T13:31:54;7.82;;;7.05;;
11703;SDS011;5908;51.354;7.458;2023-09-12T13:34:21;8.25;;;6.78;;
11703;SDS011;5908;51.354;7.458;2023-09-12T13:36:48;8.65;;;6.82;;
11703;SDS011;5908;51.354;7.458;2023-09-12T13:39:14;7.53;;;6.82;;
11703;SDS011;5908;51.354;7.458;2023-09-12T13:41:43;7.63;;;6.82;;
11703;SDS011;5908;51.354;7.458;2023-09-12T13:44:11;8.82;;;6.80;;
11703;SDS011;5908;51.354;7.458;2023-09-12T13:46:37;7.65;;;6.75;;
11703;SDS011;5908;51.354;7.458;2023-09-12T13:49:04;7.63;;;6.72;;
11703;SDS011;5908;51.354;7.458;2023-09-12T13:51:31;6.97;;;6.20;;
11703;SDS011;5908;51.354;7.458;2023-09-12T13:53:57;8.13;;;6.40;;
11703;SDS011;5908;51.354;7.458;2023-09-12T13:56:24;7.13;;;6.03;;
11703;SDS011;5908;51.354;7.458;2023-09-12T13:58:53;7.78;;;6.30;;
11703;SDS011;5908;51.354;7.458;2023-09-12T14:01:20;7.85;;;6.65;;
11703;SDS011;5908;51.354;7.458;2023-09-12T14:03:48;7.55;;;6.75;;
11703;SDS011;5908;51.354;7.458;2023-09-12T14:06:14;7.53;;;6.35;;
11703;SDS011;5908;51.354;7.458;2023-09-12T14:08:41;8.13;;;6.57;;
11703;SDS011;5908;51.354;7.458;2023-09-12T14:11:08;8.27;;;6.97;;
11703;SDS011;5908;51.354;7.458;2023-09-12T14:13:34;7.53;;;6.50;;
11703;SDS011;5908;51.354;7.458;2023-09-12T14:16:03;7.15;;;6.45;;
11703;SDS011;5908;51.354;7.458;2023-09-12T14:18:30;10.63;;;7.80;;
11703;SDS011;5908;51.354;7.458;2023-09-12T14:20:56;8.13;;;6.32;;
11703;SDS011;5908;51.354;7.458;2023-09-12T14:23:23;7.50;;;6.80;;
11703;SDS011;5908;51.354;7.458;2023-09-12T14:25:50;13.02;;;6.40;;
11703;SDS011;5908;51.354;7.458;2023-09-12T14:28:17;15.73;;;13.63;;
11703;SDS011;5908;51.354;7.458;2023-09-12T14:30:44;7.18;;;6.15;;
11703;SDS011;5908;51.354;7.458;2023-09-12T14:33:12;6.28;;;5.68;;
11703;SDS011;5908;51.354;7.458;2023-09-12T14:35:39;8.23;;;5.70;;
11703;SDS011;5908;51.354;7.458;2023-09-12T14:38:06;7.22;;;5.90;;
11703;SDS011;5908;51.354;7.458;2023-09-12T14:40:33;6.53;;;5.40;;
11703;SDS011;5908;51.354;7.458;2023-09-12T14:43:00;6.43;;;5.07;;
11703;SDS011;5908;51.354;7.458;2023-09-12T14:45:27;6.22;;;5.53;;
11703;SDS011;5908;51.354;7.458;2023-09-12T14:47:54;5.68;;;5.05;;
11703;SDS011;5908;51.354;7.458;2023-09-12T14:50:22;7.53;;;5.47;;
11703;SDS011;5908;51.354;7.458;2023-09-12T14:52:50;6.63;;;5.82;;
11703;SDS011;5908;51.354;7.458;2023-09-12T14:55:17;7.35;;;6.65;;
11703;SDS011;5908;51.354;7.458;2023-09-12T14:57:44;17.55;;;15.65;;
11703;SDS011;5908;51.354;7.458;2023-09-12T15:00:11;38.60;;;32.78;;
11703;SDS011;5908;51.354;7.458;2023-09-12T15:02:39;51.50;;;43.83;;
11703;SDS011;5908;51.354;7.458;2023-09-12T15:05:07;8.00;;;5.38;;
11703;SDS011;5908;51.354;7.458;2023-09-12T15:07:35;8.05;;;6.32;;
11703;SDS011;5908;51.354;7.458;2023-09-12T15:10:03;6.50;;;5.40;;
11703;SDS011;5908;51.354;7.458;2023-09-12T15:12:30;6.57;;;5.88;;
11703;SDS011;5908;51.354;7.458;2023-09-12T15:14:57;6.90;;;5.60;;
11703;SDS011;5908;51.354;7.458;2023-09-12T15:17:23;6.93;;;5.72;;
11703;SDS011;5908;51.354;7.458;2023-09-12T15:19:50;5.70;;;5.20;;
11703;SDS011;5908;51.354;7.458;2023-09-12T15:22:17;6.05;;;5.32;;
11703;SDS011;5908;51.354;7.458;2023-09-12T15:24:45;6.75;;;6.10;;
11703;SDS011;5908;51.354;7.458;2023-09-12T15:27:12;6.78;;;6.07;;
11703;SDS011;5908;51.354;7.458;2023-09-12T15:29:38;6.65;;;5.95;;
11703;SDS011;5908;51.354;7.458;2023-09-12T15:32:05;6.85;;;5.97;;
11703;SDS011;5908;51.354;7.458;2023-09-12T15:34:32;5.78;;;5.28;;
11703;SDS011;5908;51.354;7.458;2023-09-12T15:37:08;7.88;;;6.10;;
11703;SDS011;5908;51.354;7.458;2023-09-12T15:39:37;6.97;;;5.75;;
11703;SDS011;5908;51.354;7.458;2023-09-12T15:42:05;9.25;;;8.32;;
11703;SDS011;5908;51.354;7.458;2023-09-12T15:44:32;7.07;;;5.57;;
11703;SDS011;5908;51.354;7.458;2023-09-12T15:46:59;6.10;;;5.43;;
11703;SDS011;5908;51.354;7.458;2023-09-12T15:49:26;6.20;;;5.60;;
11703;SDS011;5908;51.354;7.458;2023-09-12T15:51:53;7.40;;;6.60;;
11703;SDS011;5908;51.354;7.458;2023-09-12T15:54:20;8.85;;;6.70;;
11703;SDS011;5908;51.354;7.458;2023-09-12T15:56:47;7.93;;;7.10;;
11703;SDS011;5908;51.354;7.458;2023-09-12T15:59:15;6.32;;;5.72;;
11703;SDS011;5908;51.354;7.458;2023-09-12T16:01:42;6.37;;;5.70;;
11703;SDS011;5908;51.354;7.458;2023-09-12T16:04:09;7.05;;;5.70;;
11703;SDS011;5908;51.354;7.458;2023-09-12T16:06:36;6.45;;;5.70;;
11703;SDS011;5908;51.354;7.458;2023-09-12T16:09:03;5.93;;;5.30;;
11703;SDS011;5908;51.354;7.458;2023-09-12T16:11:30;6.85;;;6.13;;
11703;SDS011;5908;51.354;7.458;2023-09-12T16:13:57;9.27;;;5.85;;
11703;SDS011;5908;51.354;7.458;2023-09-12T16:16:25;6.13;;;5.50;;
11703;SDS011;5908;51.354;7.458;2023-09-12T16:18:52;5.70;;;5.18;;
11703;SDS011;5908;51.354;7.458;2023-09-12T16:21:19;6.53;;;5.80;;
11703;SDS011;5908;51.354;7.458;2023-09-12T16:23:48;8.23;;;5.90;;
11703;SDS011;5908;51.354;7.458;2023-09-12T16:26:18;7.18;;;6.47;;
11703;SDS011;5908;51.354;7.458;2023-09-12T16:28:44;6.83;;;6.10;;
11703;SDS011;5908;51.354;7.458;2023-09-12T16:31:11;6.53;;;5.50;;
11703;SDS011;5908;51.354;7.458;2023-09-12T16:33:39;6.32;;;5.55;;
11703;SDS011;5908;51.354;7.458;2023-09-12T16:36:06;5.90;;;5.00;;
11703;SDS011;5908;51.354;7.458;2023-09-12T16:38:33;5.97;;;5.30;;
11703;SDS011;5908;51.354;7.458;2023-09-12T16:40:59;6.00;;;5.40;;
11703;SDS011;5908;51.354;7.458;2023-09-12T16:43:26;5.85;;;5.25;;
11703;SDS011;5908;51.354;7.458;2023-09-12T16:45:53;7.18;;;6.32;;
11703;SDS011;5908;51.354;7.458;2023-09-12T16:48:20;6.88;;;5.40;;
11703;SDS011;5908;51.354;7.458;2023-09-12T16:50:49;6.22;;;5.63;;
11703;SDS011;5908;51.354;7.458;2023-09-12T16:53:16;7.47;;;5.65;;
11703;SDS011;5908;51.354;7.458;2023-09-12T16:55:43;6.82;;;5.70;;
11703;SDS011;5908;51.354;7.458;2023-09-12T16:58:09;5.82;;;5.22;;
11703;SDS011;5908;51.354;7.458;2023-09-12T17:00:36;6.13;;;5.20;;
11703;SDS011;5908;51.354;7.458;2023-09-12T17:03:04;6.07;;;5.47;;
11703;SDS011;5908;51.354;7.458;2023-09-12T17:05:31;6.22;;;5.63;;
11703;SDS011;5908;51.354;7.458;2023-09-12T17:07:59;8.43;;;7.63;;
11703;SDS011;5908;51.354;7.458;2023-09-12T17:10:26;6.10;;;5.50;;
11703;SDS011;5908;51.354;7.458;2023-09-12T17:12:53;6.78;;;6.07;;
11703;SDS011;5908;51.354;7.458;2023-09-12T17:15:20;6.88;;;6.20;;
11703;SDS011;5908;51.354;7.458;2023-09-12T17:17:47;8.38;;;6.50;;
11703;SDS011;5908;51.354;7.458;2023-09-12T17:20:14;6.40;;;5.60;;
11703;SDS011;5908;51.354;7.458;2023-09-12T17:22:42;6.60;;;6.00;;
11703;SDS011;5908;51.354;7.458;2023-09-12T17:25:10;6.45;;;5.85;;
11703;SDS011;5908;51.354;7.458;2023-09-12T17:27:37;7.70;;;6.17;;
11703;SDS011;5908;51.354;7.458;2023-09-12T17:30:05;6.65;;;5.85;;
11703;SDS011;5908;51.354;7.458;2023-09-12T17:32:33;7.47;;;6.57;;
11703;SDS011;5908;51.354;7.458;2023-09-12T17:35:00;8.60;;;6.60;;
11703;SDS011;5908;51.354;7.458;2023-09-12T17:37:28;7.05;;;6.38;;
11703;SDS011;5908;51.354;7.458;2023-09-12T17:39:54;13.90;;;12.40;;
11703;SDS011;5908;51.354;7.458;2023-09-12T17:42:23;8.13;;;7.32;;
11703;SDS011;5908;51.354;7.458;2023-09-12T17:44:50;8.67;;;7.73;;
11703;SDS011;5908;51.354;7.458;2023-09-12T17:47:17;8.07;;;7.18;;
11703;SDS011;5908;51.354;7.458;2023-09-12T17:49:45;13.95;;;11.45;;
11703;SDS011;5908;51.354;7.458;2023-09-12T17:52:12;10.48;;;9.13;;
11703;SDS011;5908;51.354;7.458;2023-09-12T17:54:40;7.70;;;6.90;;
11703;SDS011;5908;51.354;7.458;2023-09-12T17:57:07;6.88;;;6.18;;
11703;SDS011;5908;51.354;7.458;2023-09-12T17:59:35;10.40;;;9.35;;
11703;SDS011;5908;51.354;7.458;2023-09-12T18:02:03;11.25;;;10.05;;
11703;SDS011;5908;51.354;7.458;2023-09-12T18:04:31;16.52;;;13.68;;
11703;SDS011;5908;51.354;7.458;2023-09-12T18:06:58;9.35;;;8.32;;
11703;SDS011;5908;51.354;7.458;2023-09-12T18:09:25;9.88;;;8.90;;
11703;SDS011;5908;51.354;7.458;2023-09-12T18:11:52;9.30;;;8.30;;
11703;SDS011;5908;51.354;7.458;2023-09-12T18:14:20;14.68;;;13.23;;
11703;SDS011;5908;51.354;7.458;2023-09-12T18:16:48;7.53;;;6.60;;
11703;SDS011;5908;51.354;7.458;2023-09-12T18:19:15;8.05;;;6.63;;
11703;SDS011;5908;51.354;7.458;2023-09-12T18:21:41;6.60;;;5.88;;
11703;SDS011;5908;51.354;7.458;2023-09-12T18:24:08;6.50;;;5.90;;
11703;SDS011;5908;51.354;7.458;2023-09-12T18:26:35;7.13;;;6.43;;
11703;SDS011;5908;51.354;7.458;2023-09-12T18:29:02;7.88;;;6.63;;
11703;SDS011;5908;51.354;7.458;2023-09-12T18:31:29;8.05;;;7.05;;
11703;SDS011;5908;51.354;7.458;2023-09-12T18:33:57;7.15;;;5.97;;
11703;SDS011;5908;51.354;7.458;2023-09-12T18:36:23;6.20;;;5.70;;
11703;SDS011;5908;51.354;7.458;2023-09-12T18:38:52;6.70;;;6.00;;
11703;SDS011;5908;51.354;7.458;2023-09-12T18:41:20;8.75;;;7.85;;
11703;SDS011;5908;51.354;7.458;2023-09-12T18:43:53;6.47;;;5.88;;
11703;SDS011;5908;51.354;7.458;2023-09-12T18:46:20;6.80;;;6.05;;
11703;SDS011;5908;51.354;7.458;2023-09-12T18:48:46;17.52;;;15.65;;
11703;SDS011;5908;51.354;7.458;2023-09-12T18:51:15;26.60;;;23.83;;
11703;SDS011;5908;51.354;7.458;2023-09-12T18:53:41;50.28;;;43.92;;
11703;SDS011;5908;51.354;7.458;2023-09-12T18:56:08;12.30;;;11.00;;
11703;SDS011;5908;51.354;7.458;2023-09-12T18:58:35;14.60;;;13.05;;
11703;SDS011;5908;51.354;7.458;2023-09-12T19:01:02;32.25;;;28.85;;
11703;SDS011;5908;51.354;7.458;2023-09-12T19:03:29;14.65;;;12.55;;
11703;SDS011;5908;51.354;7.458;2023-09-12T19:05:55;7.57;;;6.85;;
11703;SDS011;5908;51.354;7.458;2023-09-12T19:08:24;9.25;;;8.20;;
11703;SDS011;5908;51.354;7.458;2023-09-12T19:10:50;8.98;;;8.15;;
11703;SDS011;5908;51.354;7.458;2023-09-12T19:13:17;9.45;;;8.60;;
11703;SDS011;5908;51.354;7.458;2023-09-12T19:15:44;9.55;;;8.15;;
11703;SDS011;5908;51.354;7.458;2023-09-12T19:18:11;9.65;;;8.07;;
11703;SDS011;5908;51.354;7.458;2023-09-12T19:20:38;9.80;;;8.80;;
11703;SDS011;5908;51.354;7.458;2023-09-12T19:23:05;10.20;;;9.20;;
11703;SDS011;5908;51.354;7.458;2023-09-12T19:25:33;11.10;;;10.07;;
11703;SDS011;5908;51.354;7.458;2023-09-12T19:28:02;11.02;;;10.00;;
11703;SDS011;5908;51.354;7.458;2023-09-12T19:30:32;11.20;;;10.10;;
11703;SDS011;5908;51.354;7.458;2023-09-12T19:33:00;17.02;;;15.30;;
11703;SDS011;5908;51.354;7.458;2023-09-12T19:35:30;17.13;;;15.50;;
11703;SDS011;5908;51.354;7.458;2023-09-12T19:37:57;14.43;;;12.97;;
11703;SDS011;5908;51.354;7.458;2023-09-12T19:40:26;22.38;;;20.02;;
11703;SDS011;5908;51.354;7.458;2023-09-12T19:42:55;53.88;;;48.33;;
11703;SDS011;5908;51.354;7.458;2023-09-12T19:45:21;19.40;;;17.55;;
11703;SDS011;5908;51.354;7.458;2023-09-12T19:47:48;13.63;;;12.32;;
11703;SDS011;5908;51.354;7.458;2023-09-12T19:50:15;12.32;;;11.13;;
11703;SDS011;5908;51.354;7.458;2023-09-12T19:52:42;20.02;;;17.90;;
11703;SDS011;5908;51.354;7.458;2023-09-12T19:55:09;15.75;;;14.15;;
11703;SDS011;5908;51.354;7.458;2023-09-12T19:57:36;19.65;;;17.65;;
11703;SDS011;5908;51.354;7.458;2023-09-12T20:00:07;50.10;;;44.80;;
11703;SDS011;5908;51.354;7.458;2023-09-12T20:02:34;114.18;;;102.00;;
11703;SDS011;5908;51.354;7.458;2023-09-12T20:05:01;100.38;;;89.95;;
11703;SDS011;5908;51.354;7.458;2023-09-12T20:07:29;98.07;;;88.07;;
11703;SDS011;5908;51.354;7.458;2023-09-12T20:09:55;114.35;;;102.68;;
11703;SDS011;5908;51.354;7.458;2023-09-12T20:12:22;107.47;;;96.35;;
11703;SDS011;5908;51.354;7.458;2023-09-12T20:14:49;116.80;;;104.95;;
11703;SDS011;5908;51.354;7.458;2023-09-12T20:17:17;55.72;;;49.92;;
11703;SDS011;5908;51.354;7.458;2023-09-12T20:19:44;40.55;;;36.38;;
11703;SDS011;5908;51.354;7.458;2023-09-12T20:22:11;18.95;;;17.10;;
11703;SDS011;5908;51.354;7.458;2023-09-12T20:24:38;20.73;;;18.65;;
11703;SDS011;5908;51.354;7.458;2023-09-12T20:27:05;18.40;;;16.48;;
11703;SDS011;5908;51.354;7.458;2023-09-12T20:29:32;34.45;;;29.90;;
11703;SDS011;5908;51.354;7.458;2023-09-12T20:31:58;53.50;;;47.90;;
11703;SDS011;5908;51.354;7.458;2023-09-12T20:34:26;41.73;;;37.33;;
11703;SDS011;5908;51.354;7.458;2023-09-12T20:36:53;26.90;;;24.20;;
11703;SDS011;5908;51.354;7.458;2023-09-12T20:39:22;21.90;;;19.65;;
11703;SDS011;5908;51.354;7.458;2023-09-12T20:41:50;30.67;;;27.57;;
11703;SDS011;5908;51.354;7.458;2023-09-12T20:44:17;21.48;;;19.38;;
11703;SDS011;5908;51.354;7.458;2023-09-12T20:46:44;25.63;;;23.00;;
11703;SDS011;5908;51.354;7.458;2023-09-12T20:49:11;25.48;;;22.75;;
11703;SDS011;5908;51.354;7.458;2023-09-12T20:51:39;16.70;;;15.00;;
11703;SDS011;5908;51.354;7.458;2023-09-12T20:54:11;30.23;;;27.15;;
11703;SDS011;5908;51.354;7.458;2023-09-12T20:56:38;33.10;;;29.73;;
11703;SDS011;5908;51.354;7.458;2023-09-12T20:59:05;46.72;;;41.85;;
11703;SDS011;5908;51.354;7.458;2023-09-12T21:01:33;52.87;;;47.40;;
11703;SDS011;5908;51.354;7.458;2023-09-12T21:04:00;46.20;;;41.35;;
11703;SDS011;5908;51.354;7.458;2023-09-12T21:06:27;30.05;;;27.02;;
11703;SDS011;5908;51.354;7.458;2023-09-12T21:08:55;35.30;;;31.63;;
11703;SDS011;5908;51.354;7.458;2023-09-12T21:11:22;19.80;;;17.80;;
11703;SDS011;5908;51.354;7.458;2023-09-12T21:13:48;22.25;;;19.85;;
11703;SDS011;5908;51.354;7.458;2023-09-12T21:16:15;25.45;;;22.67;;
11703;SDS011;5908;51.354;7.458;2023-09-12T21:18:43;36.25;;;32.45;;
11703;SDS011;5908;51.354;7.458;2023-09-12T21:21:10;30.45;;;27.35;;
11703;SDS011;5908;51.354;7.458;2023-09-12T21:23:37;32.55;;;29.20;;
11703;SDS011;5908;51.354;7.458;2023-09-12T21:26:05;41.08;;;36.50;;
11703;SDS011;5908;51.354;7.458;2023-09-12T21:28:32;58.38;;;52.08;;
11703;SDS011;5908;51.354;7.458;2023-09-12T21:30:58;64.43;;;57.65;;
11703;SDS011;5908;51.354;7.458;2023-09-12T21:33:25;64.63;;;57.63;;
11703;SDS011;5908;51.354;7.458;2023-09-12T21:35:52;66.82;;;59.75;;
11703;SDS011;5908;51.354;7.458;2023-09-12T21:38:18;53.92;;;48.20;;
11703;SDS011;5908;51.354;7.458;2023-09-12T21:40:46;52.75;;;47.20;;
11703;SDS011;5908;51.354;7.458;2023-09-12T21:43:14;53.85;;;48.22;;
11703;SDS011;5908;51.354;7.458;2023-09-12T21:45:41;59.43;;;53.27;;
11703;SDS011;5908;51.354;7.458;2023-09-12T21:48:07;68.30;;;61.33;;
11703;SDS011;5908;51.354;7.458;2023-09-12T21:50:34;39.25;;;35.25;;
11703;SDS011;5908;51.354;7.458;2023-09-12T21:53:01;40.47;;;36.38;;
11703;SDS011;5908;51.354;7.458;2023-09-12T21:55:28;40.45;;;36.17;;
11703;SDS011;5908;51.354;7.458;2023-09-12T21:57:55;46.87;;;42.17;;
11703;SDS011;5908;51.354;7.458;2023-09-12T22:00:23;85.20;;;76.40;;
11703;SDS011;5908;51.354;7.458;2023-09-12T22:02:54;61.15;;;54.70;;
11703;SDS011;5908;51.354;7.458;2023-09-12T22:05:21;42.80;;;38.13;;
11703;SDS011;5908;51.354;7.458;2023-09-12T22:07:48;48.97;;;43.83;;
11703;SDS011;5908;51.354;7.458;2023-09-12T22:10:15;61.97;;;55.42;;
11703;SDS011;5908;51.354;7.458;2023-09-12T22:12:42;123.23;;;110.17;;
11703;SDS011;5908;51.354;7.458;2023-09-12T22:15:10;59.22;;;53.17;;
11703;SDS011;5908;51.354;7.458;2023-09-12T22:17:38;51.53;;;46.05;;
11703;SDS011;5908;51.354;7.458;2023-09-12T22:20:05;28.45;;;25.40;;
11703;SDS011;5908;51.354;7.458;2023-09-12T22:22:37;28.73;;;25.73;;
11703;SDS011;5908;51.354;7.458;2023-09-12T22:25:04;27.67;;;24.77;;
11703;SDS011;5908;51.354;7.458;2023-09-12T22:27:31;27.45;;;24.50;;
11703;SDS011;5908;51.354;7.458;2023-09-12T22:29:58;26.83;;;23.93;;
11703;SDS011;5908;51.354;7.458;2023-09-12T22:32:25;28.02;;;25.08;;
11703;SDS011;5908;51.354;7.458;2023-09-12T22:34:54;28.92;;;25.83;;
11703;SDS011;5908;51.354;7.458;2023-09-12T22:37:20;28.80;;;25.75;;
11703;SDS011;5908;51.354;7.458;2023-09-12T22:39:47;29.80;;;26.67;;
11703;SDS011;5908;51.354;7.458;2023-09-12T22:42:15;29.07;;;26.07;;
11703;SDS011;5908;51.354;7.458;2023-09-12T22:44:42;39.10;;;34.47;;
11703;SDS011;5908;51.354;7.458;2023-09-12T22:47:09;31.30;;;27.17;;
11703;SDS011;5908;51.354;7.458;2023-09-12T22:49:36;34.17;;;29.65;;
11703;SDS011;5908;51.354;7.458;2023-09-12T22:52:04;43.55;;;38.92;;
11703;SDS011;5908;51.354;7.458;2023-09-12T22:54:31;36.70;;;32.70;;
11703;SDS011;5908;51.354;7.458;2023-09-12T22:56:58;37.53;;;32.67;;
11703;SDS011;5908;51.354;7.458;2023-09-12T22:59:26;38.58;;;33.88;;
11703;SDS011;5908;51.354;7.458;2023-09-12T23:01:53;37.65;;;31.80;;
11703;SDS011;5908;51.354;7.458;2023-09-12T23:04:20;39.10;;;31.88;;
11703;SDS011;5908;51.354;7.458;2023-09-12T23:06:47;41.53;;;32.20;;